sensor_id;sensor_type;location;lat;lon;timestamp;temperature;humidity
8067;DHT22;4076;48.076;9.118;2022-07-29T00:02:10;17.60;99.90
8067;DHT22;4076;48.076;9.118;2022-07-29T00:04:36;17.60;99.90
8067;DHT22;4076;48.076;9.118;2022-07-29T00:07:02;17.50;99.90
8067;DHT22;4076;48.076;9.118;2022-07-29T00:09:28;17.50;99.90
8067;DHT22;4076;48.076;9.118;2022-07-29T00:11:55;17.50;99.90
8067;DHT22;4076;48.076;9.118;2022-07-29T00:14:22;17.50;99.90
8067;DHT22;4076;48.076;9.118;2022-07-29T00:16:47;17.40;99.90
8067;DHT22;4076;48.076;9.118;2022-07-29T00:19:13;17.40;99.90
8067;DHT22;4076;48.076;9.118;2022-07-29T00:21:38;17.40;99.90
8067;DHT22;4076;48.076;9.118;2022-07-29T00:24:04;17.40;99.90
8067;DHT22;4076;48.076;9.118;2022-07-29T00:26:30;17.30;99.90
8067;DHT22;4076;48.076;9.118;2022-07-29T00:29:01;17.30;99.90
8067;DHT22;4076;48.076;9.118;2022-07-29T00:31:27;17.30;99.90
8067;DHT22;4076;48.076;9.118;2022-07-29T00:33:53;17.30;99.90
8067;DHT22;4076;48.076;9.118;2022-07-29T00:36:19;17.40;99.90
8067;DHT22;4076;48.076;9.118;2022-07-29T00:38:49;17.40;99.90
8067;DHT22;4076;48.076;9.118;2022-07-29T00:41:15;17.40;99.90
8067;DHT22;4076;48.076;9.118;2022-07-29T00:43:41;17.40;99.90
8067;DHT22;4076;48.076;9.118;2022-07-29T00:46:07;17.40;99.90
8067;DHT22;4076;48.076;9.118;2022-07-29T00:48:33;17.40;99.90
8067;DHT22;4076;48.076;9.118;2022-07-29T00:50:59;17.30;99.90
8067;DHT22;4076;48.076;9.118;2022-07-29T00:53:27;17.40;99.90
8067;DHT22;4076;48.076;9.118;2022-07-29T00:55:55;17.40;99.90
8067;DHT22;4076;48.076;9.118;2022-07-29T00:58:22;17.40;99.90
8067;DHT22;4076;48.076;9.118;2022-07-29T01:00:47;17.40;99.90
8067;DHT22;4076;48.076;9.118;2022-07-29T01:03:13;17.40;99.90
8067;DHT22;4076;48.076;9.118;2022-07-29T01:05:38;17.30;99.90
8067;DHT22;4076;48.076;9.118;2022-07-29T01:08:06;17.20;99.90
8067;DHT22;4076;48.076;9.118;2022-07-29T01:10:32;17.20;99.90
8067;DHT22;4076;48.076;9.118;2022-07-29T01:12:59;17.20;99.90
8067;DHT22;4076;48.076;9.118;2022-07-29T01:15:26;17.20;99.90
8067;DHT22;4076;48.076;9.118;2022-07-29T01:18:09;17.20;99.90
8067;DHT22;4076;48.076;9.118;2022-07-29T01:20:54;17.20;99.90
8067;DHT22;4076;48.076;9.118;2022-07-29T01:26:41;17.00;99.90
8067;DHT22;4076;48.076;9.118;2022-07-29T01:29:30;17.10;99.90
8067;DHT22;4076;48.076;9.118;2022-07-29T01:32:02;17.00;99.90
8067;DHT22;4076;48.076;9.118;2022-07-29T01:37:18;16.90;99.90
8067;DHT22;4076;48.076;9.118;2022-07-29T01:39:46;16.90;99.90
8067;DHT22;4076;48.076;9.118;2022-07-29T01:42:38;16.90;99.90
8067;DHT22;4076;48.076;9.118;2022-07-29T01:47:40;16.90;99.90
8067;DHT22;4076;48.076;9.118;2022-07-29T01:50:10;16.90;99.90
8067;DHT22;4076;48.076;9.118;2022-07-29T01:52:42;16.80;99.90
8067;DHT22;4076;48.076;9.118;2022-07-29T01:55:14;16.80;99.90
8067;DHT22;4076;48.076;9.118;2022-07-29T01:57:44;16.80;99.90
8067;DHT22;4076;48.076;9.118;2022-07-29T02:00:11;16.70;99.90
8067;DHT22;4076;48.076;9.118;2022-07-29T02:02:40;16.70;99.90
8067;DHT22;4076;48.076;9.118;2022-07-29T02:05:08;16.70;99.90
8067;DHT22;4076;48.076;9.118;2022-07-29T02:07:36;16.60;99.90
8067;DHT22;4076;48.076;9.118;2022-07-29T02:10:04;16.60;99.90
8067;DHT22;4076;48.076;9.118;2022-07-29T02:12:31;16.70;99.90
8067;DHT22;4076;48.076;9.118;2022-07-29T02:15:00;16.70;99.90
8067;DHT22;4076;48.076;9.118;2022-07-29T02:17:29;16.70;99.90
8067;DHT22;4076;48.076;9.118;2022-07-29T02:19:57;16.60;99.90
8067;DHT22;4076;48.076;9.118;2022-07-29T02:22:25;16.60;99.90
8067;DHT22;4076;48.076;9.118;2022-07-29T02:24:53;16.50;99.90
8067;DHT22;4076;48.076;9.118;2022-07-29T02:27:20;16.50;99.90
8067;DHT22;4076;48.076;9.118;2022-07-29T02:29:47;16.50;99.90
8067;DHT22;4076;48.076;9.118;2022-07-29T02:32:15;16.50;99.90
8067;DHT22;4076;48.076;9.118;2022-07-29T02:34:42;16.50;99.90
8067;DHT22;4076;48.076;9.118;2022-07-29T02:37:10;16.40;99.90
8067;DHT22;4076;48.076;9.118;2022-07-29T02:39:37;16.40;99.90
8067;DHT22;4076;48.076;9.118;2022-07-29T02:42:07;16.40;99.90
8067;DHT22;4076;48.076;9.118;2022-07-29T02:44:35;16.30;99.90
8067;DHT22;4076;48.076;9.118;2022-07-29T02:50:11;16.30;99.90
8067;DHT22;4076;48.076;9.118;2022-07-29T02:52:43;16.30;99.90
8067;DHT22;4076;48.076;9.118;2022-07-29T02:55:17;16.30;99.90
8067;DHT22;4076;48.076;9.118;2022-07-29T02:57:51;16.30;99.90
8067;DHT22;4076;48.076;9.118;2022-07-29T03:00:19;16.30;99.90
8067;DHT22;4076;48.076;9.118;2022-07-29T03:02:50;16.20;99.90
8067;DHT22;4076;48.076;9.118;2022-07-29T03:05:18;16.20;99.90
8067;DHT22;4076;48.076;9.118;2022-07-29T03:07:52;16.20;99.90
8067;DHT22;4076;48.076;9.118;2022-07-29T03:10:20;16.20;99.90
8067;DHT22;4076;48.076;9.118;2022-07-29T03:12:47;16.20;99.90
8067;DHT22;4076;48.076;9.118;2022-07-29T03:15:13;16.20;99.90
8067;DHT22;4076;48.076;9.118;2022-07-29T03:17:39;16.20;99.90
8067;DHT22;4076;48.076;9.118;2022-07-29T03:20:07;16.20;99.90
8067;DHT22;4076;48.076;9.118;2022-07-29T03:22:33;16.20;99.90
8067;DHT22;4076;48.076;9.118;2022-07-29T03:25:10;16.20;99.90
8067;DHT22;4076;48.076;9.118;2022-07-29T03:27:36;16.20;99.90
8067;DHT22;4076;48.076;9.118;2022-07-29T03:30:03;16.20;99.90
8067;DHT22;4076;48.076;9.118;2022-07-29T03:32:28;16.20;99.90
8067;DHT22;4076;48.076;9.118;2022-07-29T03:34:54;16.20;99.90
8067;DHT22;4076;48.076;9.118;2022-07-29T03:37:19;16.20;99.90
8067;DHT22;4076;48.076;9.118;2022-07-29T03:39:46;16.10;99.90
8067;DHT22;4076;48.076;9.118;2022-07-29T03:42:15;16.10;99.90
8067;DHT22;4076;48.076;9.118;2022-07-29T03:44:42;16.10;99.90
8067;DHT22;4076;48.076;9.118;2022-07-29T03:47:09;16.00;99.90
8067;DHT22;4076;48.076;9.118;2022-07-29T03:49:37;16.00;99.90
8067;DHT22;4076;48.076;9.118;2022-07-29T03:52:04;16.00;99.90
8067;DHT22;4076;48.076;9.118;2022-07-29T03:54:30;15.90;99.90
8067;DHT22;4076;48.076;9.118;2022-07-29T03:57:02;15.90;99.90
8067;DHT22;4076;48.076;9.118;2022-07-29T03:59:30;15.90;99.90
8067;DHT22;4076;48.076;9.118;2022-07-29T04:01:58;15.90;99.90
8067;DHT22;4076;48.076;9.118;2022-07-29T04:04:25;15.90;99.90
8067;DHT22;4076;48.076;9.118;2022-07-29T04:06:51;15.90;99.90
8067;DHT22;4076;48.076;9.118;2022-07-29T04:09:16;15.90;99.90
8067;DHT22;4076;48.076;9.118;2022-07-29T04:11:42;15.90;99.90
8067;DHT22;4076;48.076;9.118;2022-07-29T04:14:08;15.90;99.90
8067;DHT22;4076;48.076;9.118;2022-07-29T04:16:33;16.00;99.90
8067;DHT22;4076;48.076;9.118;2022-07-29T04:18:59;16.00;99.90
8067;DHT22;4076;48.076;9.118;2022-07-29T04:21:25;16.10;99.90
8067;DHT22;4076;48.076;9.118;2022-07-29T04:23:50;16.20;99.90
8067;DHT22;4076;48.076;9.118;2022-07-29T04:26:17;16.30;99.90
8067;DHT22;4076;48.076;9.118;2022-07-29T04:28:42;16.30;99.90
8067;DHT22;4076;48.076;9.118;2022-07-29T04:31:09;16.30;99.90
8067;DHT22;4076;48.076;9.118;2022-07-29T04:33:35;16.30;99.90
8067;DHT22;4076;48.076;9.118;2022-07-29T04:36:00;16.30;99.90
8067;DHT22;4076;48.076;9.118;2022-07-29T04:38:26;16.30;99.90
8067;DHT22;4076;48.076;9.118;2022-07-29T04:40:51;16.40;99.90
8067;DHT22;4076;48.076;9.118;2022-07-29T04:43:17;16.40;99.90
8067;DHT22;4076;48.076;9.118;2022-07-29T04:45:42;16.40;99.90
8067;DHT22;4076;48.076;9.118;2022-07-29T04:48:08;16.40;99.90
8067;DHT22;4076;48.076;9.118;2022-07-29T04:50:34;16.50;99.90
8067;DHT22;4076;48.076;9.118;2022-07-29T04:52:59;16.50;99.90
8067;DHT22;4076;48.076;9.118;2022-07-29T04:55:25;16.50;99.90
8067;DHT22;4076;48.076;9.118;2022-07-29T04:57:51;16.60;99.90
8067;DHT22;4076;48.076;9.118;2022-07-29T05:00:17;16.60;99.90
8067;DHT22;4076;48.076;9.118;2022-07-29T05:02:43;16.50;99.90
8067;DHT22;4076;48.076;9.118;2022-07-29T05:05:08;16.50;99.90
8067;DHT22;4076;48.076;9.118;2022-07-29T05:07:34;16.50;99.90
8067;DHT22;4076;48.076;9.118;2022-07-29T05:10:01;16.50;99.90
8067;DHT22;4076;48.076;9.118;2022-07-29T05:12:26;16.50;99.90
8067;DHT22;4076;48.076;9.118;2022-07-29T05:14:52;16.60;99.90
8067;DHT22;4076;48.076;9.118;2022-07-29T05:17:18;16.60;99.90
8067;DHT22;4076;48.076;9.118;2022-07-29T05:19:44;16.60;99.90
8067;DHT22;4076;48.076;9.118;2022-07-29T05:22:09;16.70;99.90
8067;DHT22;4076;48.076;9.118;2022-07-29T05:24:35;16.70;99.90
8067;DHT22;4076;48.076;9.118;2022-07-29T05:27:00;16.70;99.90
8067;DHT22;4076;48.076;9.118;2022-07-29T05:29:26;16.70;99.90
8067;DHT22;4076;48.076;9.118;2022-07-29T05:31:51;16.80;99.90
8067;DHT22;4076;48.076;9.118;2022-07-29T05:34:18;16.80;99.90
8067;DHT22;4076;48.076;9.118;2022-07-29T05:36:44;16.90;99.90
8067;DHT22;4076;48.076;9.118;2022-07-29T05:39:10;16.90;99.90
8067;DHT22;4076;48.076;9.118;2022-07-29T05:41:36;17.00;99.90
8067;DHT22;4076;48.076;9.118;2022-07-29T05:44:02;17.00;99.90
8067;DHT22;4076;48.076;9.118;2022-07-29T05:46:27;17.10;99.90
8067;DHT22;4076;48.076;9.118;2022-07-29T05:48:53;17.10;99.90
8067;DHT22;4076;48.076;9.118;2022-07-29T05:51:18;17.20;99.90
8067;DHT22;4076;48.076;9.118;2022-07-29T05:53:44;17.20;99.90
8067;DHT22;4076;48.076;9.118;2022-07-29T05:56:10;17.30;99.90
8067;DHT22;4076;48.076;9.118;2022-07-29T05:58:35;17.40;99.90
8067;DHT22;4076;48.076;9.118;2022-07-29T06:01:01;17.50;99.90
8067;DHT22;4076;48.076;9.118;2022-07-29T06:03:27;17.80;99.90
8067;DHT22;4076;48.076;9.118;2022-07-29T06:05:53;18.10;99.90
8067;DHT22;4076;48.076;9.118;2022-07-29T06:08:18;18.40;99.90
8067;DHT22;4076;48.076;9.118;2022-07-29T06:10:44;18.60;99.90
8067;DHT22;4076;48.076;9.118;2022-07-29T06:13:11;18.90;99.90
8067;DHT22;4076;48.076;9.118;2022-07-29T06:15:36;19.00;99.90
8067;DHT22;4076;48.076;9.118;2022-07-29T06:18:02;19.20;99.90
8067;DHT22;4076;48.076;9.118;2022-07-29T06:20:29;19.40;99.90
8067;DHT22;4076;48.076;9.118;2022-07-29T06:22:55;19.50;99.90
8067;DHT22;4076;48.076;9.118;2022-07-29T06:25:21;19.80;99.90
8067;DHT22;4076;48.076;9.118;2022-07-29T06:27:46;20.30;99.90
8067;DHT22;4076;48.076;9.118;2022-07-29T06:30:12;20.70;99.90
8067;DHT22;4076;48.076;9.118;2022-07-29T06:32:38;21.00;99.90
8067;DHT22;4076;48.076;9.118;2022-07-29T06:35:03;21.20;99.90
8067;DHT22;4076;48.076;9.118;2022-07-29T06:37:29;21.30;99.90
8067;DHT22;4076;48.076;9.118;2022-07-29T06:39:54;21.40;99.90
8067;DHT22;4076;48.076;9.118;2022-07-29T06:42:43;21.60;99.90
8067;DHT22;4076;48.076;9.118;2022-07-29T06:45:10;21.80;99.90
8067;DHT22;4076;48.076;9.118;2022-07-29T06:47:35;21.90;99.90
8067;DHT22;4076;48.076;9.118;2022-07-29T06:50:01;21.90;99.90
8067;DHT22;4076;48.076;9.118;2022-07-29T06:52:26;21.80;99.90
8067;DHT22;4076;48.076;9.118;2022-07-29T06:54:52;21.40;99.90
8067;DHT22;4076;48.076;9.118;2022-07-29T06:57:17;21.20;99.90
8067;DHT22;4076;48.076;9.118;2022-07-29T06:59:43;21.00;99.90
8067;DHT22;4076;48.076;9.118;2022-07-29T07:02:08;20.90;99.90
8067;DHT22;4076;48.076;9.118;2022-07-29T07:04:34;20.90;99.90
8067;DHT22;4076;48.076;9.118;2022-07-29T07:07:00;21.00;99.90
8067;DHT22;4076;48.076;9.118;2022-07-29T07:09:25;21.10;99.90
8067;DHT22;4076;48.076;9.118;2022-07-29T07:11:51;21.20;99.90
8067;DHT22;4076;48.076;9.118;2022-07-29T07:14:16;21.30;99.90
8067;DHT22;4076;48.076;9.118;2022-07-29T07:16:42;21.50;99.90
8067;DHT22;4076;48.076;9.118;2022-07-29T07:19:07;21.80;99.90
8067;DHT22;4076;48.076;9.118;2022-07-29T07:21:33;21.80;99.90
8067;DHT22;4076;48.076;9.118;2022-07-29T07:23:59;21.90;99.90
8067;DHT22;4076;48.076;9.118;2022-07-29T07:26:26;21.90;99.90
8067;DHT22;4076;48.076;9.118;2022-07-29T07:28:52;21.80;99.90
8067;DHT22;4076;48.076;9.118;2022-07-29T07:31:17;21.70;99.90
8067;DHT22;4076;48.076;9.118;2022-07-29T07:33:43;21.70;99.90
8067;DHT22;4076;48.076;9.118;2022-07-29T07:36:09;21.80;99.90
8067;DHT22;4076;48.076;9.118;2022-07-29T07:38:34;21.80;99.90
8067;DHT22;4076;48.076;9.118;2022-07-29T07:41:00;22.00;99.90
8067;DHT22;4076;48.076;9.118;2022-07-29T07:43:26;22.10;99.90
8067;DHT22;4076;48.076;9.118;2022-07-29T07:45:52;22.50;99.90
8067;DHT22;4076;48.076;9.118;2022-07-29T07:48:18;22.80;99.90
8067;DHT22;4076;48.076;9.118;2022-07-29T07:50:43;23.00;99.90
8067;DHT22;4076;48.076;9.118;2022-07-29T07:53:09;23.20;99.90
8067;DHT22;4076;48.076;9.118;2022-07-29T07:55:40;23.40;99.90
8067;DHT22;4076;48.076;9.118;2022-07-29T07:58:05;23.50;99.90
8067;DHT22;4076;48.076;9.118;2022-07-29T08:00:31;23.40;99.90
8067;DHT22;4076;48.076;9.118;2022-07-29T08:02:58;23.50;99.90
8067;DHT22;4076;48.076;9.118;2022-07-29T08:05:23;23.30;99.90
8067;DHT22;4076;48.076;9.118;2022-07-29T08:07:49;23.10;99.90
8067;DHT22;4076;48.076;9.118;2022-07-29T08:10:16;23.00;99.90
8067;DHT22;4076;48.076;9.118;2022-07-29T08:13:09;22.80;99.90
8067;DHT22;4076;48.076;9.118;2022-07-29T08:15:39;22.70;99.90
8067;DHT22;4076;48.076;9.118;2022-07-29T08:18:04;22.60;99.90
8067;DHT22;4076;48.076;9.118;2022-07-29T08:20:30;22.50;99.90
8067;DHT22;4076;48.076;9.118;2022-07-29T08:22:58;22.40;99.90
8067;DHT22;4076;48.076;9.118;2022-07-29T08:25:24;22.30;99.90
8067;DHT22;4076;48.076;9.118;2022-07-29T08:27:49;22.30;99.90
8067;DHT22;4076;48.076;9.118;2022-07-29T08:30:15;22.30;99.90
8067;DHT22;4076;48.076;9.118;2022-07-29T08:32:41;22.30;99.90
8067;DHT22;4076;48.076;9.118;2022-07-29T08:35:07;22.30;99.90
8067;DHT22;4076;48.076;9.118;2022-07-29T08:37:33;22.20;99.90
8067;DHT22;4076;48.076;9.118;2022-07-29T08:39:59;22.10;99.90
8067;DHT22;4076;48.076;9.118;2022-07-29T08:42:24;22.00;99.90
8067;DHT22;4076;48.076;9.118;2022-07-29T08:44:50;21.90;99.90
8067;DHT22;4076;48.076;9.118;2022-07-29T08:47:16;21.70;99.90
8067;DHT22;4076;48.076;9.118;2022-07-29T08:49:42;21.60;99.90
8067;DHT22;4076;48.076;9.118;2022-07-29T08:52:10;21.50;99.90
8067;DHT22;4076;48.076;9.118;2022-07-29T08:54:37;21.50;99.90
8067;DHT22;4076;48.076;9.118;2022-07-29T08:57:04;21.50;99.90
8067;DHT22;4076;48.076;9.118;2022-07-29T08:59:30;21.50;99.90
8067;DHT22;4076;48.076;9.118;2022-07-29T09:01:58;21.50;99.90
8067;DHT22;4076;48.076;9.118;2022-07-29T09:04:28;21.50;99.90
8067;DHT22;4076;48.076;9.118;2022-07-29T09:06:57;21.50;99.90
8067;DHT22;4076;48.076;9.118;2022-07-29T09:09:25;21.50;99.90
8067;DHT22;4076;48.076;9.118;2022-07-29T09:11:51;21.50;99.90
8067;DHT22;4076;48.076;9.118;2022-07-29T09:14:18;21.50;99.90
8067;DHT22;4076;48.076;9.118;2022-07-29T09:16:55;21.50;99.90
8067;DHT22;4076;48.076;9.118;2022-07-29T09:19:26;21.50;99.90
8067;DHT22;4076;48.076;9.118;2022-07-29T09:21:52;21.60;99.90
8067;DHT22;4076;48.076;9.118;2022-07-29T09:24:44;21.70;99.90
8067;DHT22;4076;48.076;9.118;2022-07-29T09:27:19;21.70;99.90
8067;DHT22;4076;48.076;9.118;2022-07-29T09:30:15;21.70;99.90
8067;DHT22;4076;48.076;9.118;2022-07-29T09:32:57;21.70;99.90
8067;DHT22;4076;48.076;9.118;2022-07-29T09:35:25;21.90;99.90
8067;DHT22;4076;48.076;9.118;2022-07-29T09:37:51;22.00;99.90
8067;DHT22;4076;48.076;9.118;2022-07-29T09:40:19;22.10;99.90
8067;DHT22;4076;48.076;9.118;2022-07-29T09:42:45;22.30;99.90
8067;DHT22;4076;48.076;9.118;2022-07-29T09:45:12;22.40;99.90
8067;DHT22;4076;48.076;9.118;2022-07-29T09:47:43;22.50;99.90
8067;DHT22;4076;48.076;9.118;2022-07-29T09:50:10;22.50;99.90
8067;DHT22;4076;48.076;9.118;2022-07-29T09:52:46;22.60;99.90
8067;DHT22;4076;48.076;9.118;2022-07-29T09:55:12;22.70;99.90
8067;DHT22;4076;48.076;9.118;2022-07-29T09:57:37;22.90;99.90
8067;DHT22;4076;48.076;9.118;2022-07-29T10:00:10;23.10;99.90
8067;DHT22;4076;48.076;9.118;2022-07-29T10:02:38;23.20;99.90
8067;DHT22;4076;48.076;9.118;2022-07-29T10:05:15;23.40;99.90
8067;DHT22;4076;48.076;9.118;2022-07-29T10:07:53;23.70;99.90
8067;DHT22;4076;48.076;9.118;2022-07-29T10:12:59;23.90;99.90
8067;DHT22;4076;48.076;9.118;2022-07-29T10:15:27;23.70;99.90
8067;DHT22;4076;48.076;9.118;2022-07-29T10:17:54;23.50;99.90
8067;DHT22;4076;48.076;9.118;2022-07-29T10:20:21;23.30;99.90
8067;DHT22;4076;48.076;9.118;2022-07-29T10:22:48;23.00;99.90
8067;DHT22;4076;48.076;9.118;2022-07-29T10:25:15;22.80;99.90
8067;DHT22;4076;48.076;9.118;2022-07-29T10:27:42;22.60;99.90
8067;DHT22;4076;48.076;9.118;2022-07-29T10:30:08;22.50;99.90
8067;DHT22;4076;48.076;9.118;2022-07-29T10:35:43;22.60;99.90
8067;DHT22;4076;48.076;9.118;2022-07-29T10:43:44;23.10;99.90
8067;DHT22;4076;48.076;9.118;2022-07-29T10:46:10;23.60;99.90
8067;DHT22;4076;48.076;9.118;2022-07-29T10:54:53;25.00;99.90
8067;DHT22;4076;48.076;9.118;2022-07-29T10:59:49;26.10;99.90
8067;DHT22;4076;48.076;9.118;2022-07-29T11:07:35;27.00;98.00
8067;DHT22;4076;48.076;9.118;2022-07-29T11:15:20;26.90;90.50
8067;DHT22;4076;48.076;9.118;2022-07-29T11:20:38;26.60;93.40
8067;DHT22;4076;48.076;9.118;2022-07-29T11:23:31;26.50;90.00
8067;DHT22;4076;48.076;9.118;2022-07-29T11:26:12;26.40;91.70
8067;DHT22;4076;48.076;9.118;2022-07-29T11:31:41;26.10;92.70
8067;DHT22;4076;48.076;9.118;2022-07-29T11:45:02;25.90;91.80
8067;DHT22;4076;48.076;9.118;2022-07-29T11:47:31;25.90;91.00
8067;DHT22;4076;48.076;9.118;2022-07-29T11:49:58;25.90;91.40
8067;DHT22;4076;48.076;9.118;2022-07-29T11:52:53;25.80;90.70
8067;DHT22;4076;48.076;9.118;2022-07-29T11:55:22;26.00;90.70
8067;DHT22;4076;48.076;9.118;2022-07-29T11:57:55;26.30;88.10
8067;DHT22;4076;48.076;9.118;2022-07-29T12:00:23;26.40;88.40
8067;DHT22;4076;48.076;9.118;2022-07-29T12:02:49;26.60;83.70
8067;DHT22;4076;48.076;9.118;2022-07-29T12:05:15;26.70;85.90
8067;DHT22;4076;48.076;9.118;2022-07-29T12:07:41;26.70;83.10
8067;DHT22;4076;48.076;9.118;2022-07-29T12:10:07;26.70;82.50
8067;DHT22;4076;48.076;9.118;2022-07-29T12:12:34;26.70;83.20
8067;DHT22;4076;48.076;9.118;2022-07-29T12:15:16;26.70;81.70
8067;DHT22;4076;48.076;9.118;2022-07-29T12:17:44;26.60;81.60
8067;DHT22;4076;48.076;9.118;2022-07-29T12:20:09;26.80;81.40
8067;DHT22;4076;48.076;9.118;2022-07-29T12:22:37;27.00;78.00
8067;DHT22;4076;48.076;9.118;2022-07-29T12:25:08;27.10;74.90
8067;DHT22;4076;48.076;9.118;2022-07-29T12:27:36;27.00;75.00
8067;DHT22;4076;48.076;9.118;2022-07-29T12:30:10;26.90;73.80
8067;DHT22;4076;48.076;9.118;2022-07-29T12:32:41;26.70;70.40
8067;DHT22;4076;48.076;9.118;2022-07-29T12:35:14;26.60;71.40
8067;DHT22;4076;48.076;9.118;2022-07-29T12:37:42;26.50;74.50
8067;DHT22;4076;48.076;9.118;2022-07-29T12:40:09;26.40;76.90
8067;DHT22;4076;48.076;9.118;2022-07-29T12:42:36;26.20;77.70
8067;DHT22;4076;48.076;9.118;2022-07-29T12:45:03;25.80;76.70
8067;DHT22;4076;48.076;9.118;2022-07-29T12:47:30;25.50;79.70
8067;DHT22;4076;48.076;9.118;2022-07-29T12:50:15;25.40;81.00
8067;DHT22;4076;48.076;9.118;2022-07-29T12:52:44;25.20;83.70
8067;DHT22;4076;48.076;9.118;2022-07-29T12:55:09;25.10;83.80
8067;DHT22;4076;48.076;9.118;2022-07-29T12:57:46;25.10;84.00
8067;DHT22;4076;48.076;9.118;2022-07-29T13:00:13;24.80;83.40
8067;DHT22;4076;48.076;9.118;2022-07-29T13:02:40;24.70;86.60
8067;DHT22;4076;48.076;9.118;2022-07-29T13:05:08;24.80;90.70
8067;DHT22;4076;48.076;9.118;2022-07-29T13:07:34;24.90;92.10
8067;DHT22;4076;48.076;9.118;2022-07-29T13:10:16;25.00;93.70
8067;DHT22;4076;48.076;9.118;2022-07-29T13:13:04;25.00;95.10
8067;DHT22;4076;48.076;9.118;2022-07-29T13:22:23;24.10;99.90
8067;DHT22;4076;48.076;9.118;2022-07-29T13:24:52;23.50;99.90
8067;DHT22;4076;48.076;9.118;2022-07-29T13:27:23;23.20;99.90
8067;DHT22;4076;48.076;9.118;2022-07-29T13:29:49;22.70;99.90
8067;DHT22;4076;48.076;9.118;2022-07-29T13:32:17;22.20;99.90
8067;DHT22;4076;48.076;9.118;2022-07-29T13:34:43;21.80;99.90
8067;DHT22;4076;48.076;9.118;2022-07-29T13:37:09;21.50;99.90
8067;DHT22;4076;48.076;9.118;2022-07-29T13:39:34;21.20;99.90
8067;DHT22;4076;48.076;9.118;2022-07-29T13:42:00;21.10;99.90
8067;DHT22;4076;48.076;9.118;2022-07-29T13:44:26;20.90;99.90
8067;DHT22;4076;48.076;9.118;2022-07-29T13:46:52;20.80;99.90
8067;DHT22;4076;48.076;9.118;2022-07-29T13:49:17;20.70;99.90
8067;DHT22;4076;48.076;9.118;2022-07-29T13:51:43;20.50;99.90
8067;DHT22;4076;48.076;9.118;2022-07-29T13:54:08;20.40;99.90
8067;DHT22;4076;48.076;9.118;2022-07-29T13:56:34;20.40;99.90
8067;DHT22;4076;48.076;9.118;2022-07-29T13:58:59;20.30;99.90
8067;DHT22;4076;48.076;9.118;2022-07-29T14:01:25;20.30;99.90
8067;DHT22;4076;48.076;9.118;2022-07-29T14:03:52;20.20;99.90
8067;DHT22;4076;48.076;9.118;2022-07-29T14:06:17;20.20;99.90
8067;DHT22;4076;48.076;9.118;2022-07-29T14:08:43;20.20;99.90
8067;DHT22;4076;48.076;9.118;2022-07-29T14:11:08;20.20;99.90
8067;DHT22;4076;48.076;9.118;2022-07-29T14:13:34;20.20;99.90
8067;DHT22;4076;48.076;9.118;2022-07-29T14:16:00;20.20;99.90
8067;DHT22;4076;48.076;9.118;2022-07-29T14:18:25;20.30;99.90
8067;DHT22;4076;48.076;9.118;2022-07-29T14:20:51;20.30;99.90
8067;DHT22;4076;48.076;9.118;2022-07-29T14:23:17;20.30;99.90
8067;DHT22;4076;48.076;9.118;2022-07-29T14:25:43;20.20;99.90
8067;DHT22;4076;48.076;9.118;2022-07-29T14:28:08;20.10;99.90
8067;DHT22;4076;48.076;9.118;2022-07-29T14:30:34;19.90;99.90
8067;DHT22;4076;48.076;9.118;2022-07-29T14:32:59;19.90;99.90
8067;DHT22;4076;48.076;9.118;2022-07-29T14:35:25;19.90;99.90
8067;DHT22;4076;48.076;9.118;2022-07-29T14:37:50;20.00;99.90
8067;DHT22;4076;48.076;9.118;2022-07-29T14:40:16;20.00;99.90
8067;DHT22;4076;48.076;9.118;2022-07-29T14:42:41;20.20;99.90
8067;DHT22;4076;48.076;9.118;2022-07-29T14:45:08;20.30;99.90
8067;DHT22;4076;48.076;9.118;2022-07-29T14:47:34;20.40;99.90
8067;DHT22;4076;48.076;9.118;2022-07-29T14:50:00;20.40;99.90
8067;DHT22;4076;48.076;9.118;2022-07-29T14:52:25;20.50;99.90
8067;DHT22;4076;48.076;9.118;2022-07-29T14:54:51;20.50;99.90
8067;DHT22;4076;48.076;9.118;2022-07-29T14:57:16;20.60;99.90
8067;DHT22;4076;48.076;9.118;2022-07-29T14:59:42;20.60;99.90
8067;DHT22;4076;48.076;9.118;2022-07-29T15:02:08;20.60;99.90
8067;DHT22;4076;48.076;9.118;2022-07-29T15:04:33;20.60;99.90
8067;DHT22;4076;48.076;9.118;2022-07-29T15:06:59;20.60;99.90
8067;DHT22;4076;48.076;9.118;2022-07-29T15:09:25;20.60;99.90
8067;DHT22;4076;48.076;9.118;2022-07-29T15:11:51;20.60;99.90
8067;DHT22;4076;48.076;9.118;2022-07-29T15:14:17;20.60;99.90
8067;DHT22;4076;48.076;9.118;2022-07-29T15:16:42;20.60;99.90
8067;DHT22;4076;48.076;9.118;2022-07-29T15:19:08;20.60;99.90
8067;DHT22;4076;48.076;9.118;2022-07-29T15:21:34;20.70;99.90
8067;DHT22;4076;48.076;9.118;2022-07-29T15:24:00;20.70;99.90
8067;DHT22;4076;48.076;9.118;2022-07-29T15:26:26;20.80;99.90
8067;DHT22;4076;48.076;9.118;2022-07-29T15:28:51;20.80;99.90
8067;DHT22;4076;48.076;9.118;2022-07-29T15:31:17;20.70;99.90
8067;DHT22;4076;48.076;9.118;2022-07-29T15:33:44;20.70;99.90
8067;DHT22;4076;48.076;9.118;2022-07-29T15:36:10;20.70;99.90
8067;DHT22;4076;48.076;9.118;2022-07-29T15:38:37;20.70;99.90
8067;DHT22;4076;48.076;9.118;2022-07-29T15:41:03;20.70;99.90
8067;DHT22;4076;48.076;9.118;2022-07-29T15:43:28;20.70;99.90
8067;DHT22;4076;48.076;9.118;2022-07-29T15:45:54;20.70;99.90
8067;DHT22;4076;48.076;9.118;2022-07-29T15:48:38;20.70;99.90
8067;DHT22;4076;48.076;9.118;2022-07-29T15:51:04;20.60;99.90
8067;DHT22;4076;48.076;9.118;2022-07-29T15:53:30;20.60;99.90
8067;DHT22;4076;48.076;9.118;2022-07-29T15:55:55;20.60;99.90
8067;DHT22;4076;48.076;9.118;2022-07-29T15:58:21;20.50;99.90
8067;DHT22;4076;48.076;9.118;2022-07-29T16:00:47;20.50;99.90
8067;DHT22;4076;48.076;9.118;2022-07-29T16:03:13;20.60;99.90
8067;DHT22;4076;48.076;9.118;2022-07-29T16:05:39;20.70;99.90
8067;DHT22;4076;48.076;9.118;2022-07-29T16:08:05;20.70;99.90
8067;DHT22;4076;48.076;9.118;2022-07-29T16:10:30;20.70;99.90
8067;DHT22;4076;48.076;9.118;2022-07-29T16:12:56;20.70;99.90
8067;DHT22;4076;48.076;9.118;2022-07-29T16:15:21;20.80;99.90
8067;DHT22;4076;48.076;9.118;2022-07-29T16:17:47;20.80;99.90
8067;DHT22;4076;48.076;9.118;2022-07-29T16:20:14;20.80;99.90
8067;DHT22;4076;48.076;9.118;2022-07-29T16:22:40;20.80;99.90
8067;DHT22;4076;48.076;9.118;2022-07-29T16:25:06;20.80;99.90
8067;DHT22;4076;48.076;9.118;2022-07-29T16:27:32;20.80;99.90
8067;DHT22;4076;48.076;9.118;2022-07-29T16:29:57;20.80;99.90
8067;DHT22;4076;48.076;9.118;2022-07-29T16:32:23;20.80;99.90
8067;DHT22;4076;48.076;9.118;2022-07-29T16:34:48;20.80;99.90
8067;DHT22;4076;48.076;9.118;2022-07-29T16:37:14;20.70;99.90
8067;DHT22;4076;48.076;9.118;2022-07-29T16:39:40;20.70;99.90
8067;DHT22;4076;48.076;9.118;2022-07-29T16:42:06;20.70;99.90
8067;DHT22;4076;48.076;9.118;2022-07-29T16:44:32;20.60;99.90
8067;DHT22;4076;48.076;9.118;2022-07-29T16:46:58;20.60;99.90
8067;DHT22;4076;48.076;9.118;2022-07-29T16:49:24;20.60;99.90
8067;DHT22;4076;48.076;9.118;2022-07-29T16:51:49;20.50;99.90
8067;DHT22;4076;48.076;9.118;2022-07-29T16:54:15;20.50;99.90
8067;DHT22;4076;48.076;9.118;2022-07-29T16:56:41;20.50;99.90
8067;DHT22;4076;48.076;9.118;2022-07-29T16:59:06;20.50;99.90
8067;DHT22;4076;48.076;9.118;2022-07-29T17:01:32;20.40;99.90
8067;DHT22;4076;48.076;9.118;2022-07-29T17:03:57;20.40;99.90
8067;DHT22;4076;48.076;9.118;2022-07-29T17:06:39;20.30;99.90
8067;DHT22;4076;48.076;9.118;2022-07-29T17:09:06;20.30;99.90
8067;DHT22;4076;48.076;9.118;2022-07-29T17:11:33;20.20;99.90